createdAt,value
2023-04-05T01:02:05.305Z,75.77
2023-04-05T01:03:50.613Z,75.79
2023-04-05T01:05:45.647Z,75.30
2023-04-05T01:07:07.978Z,75.40
2023-04-05T01:08:30.366Z,75.73
2023-04-05T01:10:19.445Z,75.30
2023-04-05T01:11:55.855Z,75.54
2023-04-05T01:13:40.649Z,75.29
2023-04-05T01:15:26.819Z,75.68
2023-04-05T01:17:01.515Z,75.49
2023-04-05T01:18:48.021Z,75.61
2023-04-05T01:20:25.942Z,75.41
2023-04-05T01:22:01.489Z,75.99
2023-04-05T01:23:49.335Z,75.45
2023-04-05T01:25:23.227Z,75.38
2023-04-05T01:26:56.862Z,75.97
2023-04-05T01:28:32.791Z,76.03
2023-04-05T01:30:21.872Z,75.76
2023-04-05T01:31:55.309Z,76.07
2023-04-05T01:33:40.777Z,76.19
2023-04-05T01:35:18.505Z,76.29
2023-04-05T01:37:04.537Z,76.19
2023-04-05T01:38:39.096Z,76.55
2023-04-05T01:40:26.810Z,76.16
2023-04-05T01:42:21.580Z,76.25
2023-04-05T01:43:54.880Z,76.01
2023-04-05T01:45:49.673Z,76.29
2023-04-05T01:47:44.699Z,76.26
2023-04-05T01:49:39.654Z,76.41
2023-04-05T01:51:27.132Z,76.38
2023-04-05T01:53:21.127Z,76.47
2023-04-05T01:55:14.846Z,76.42
2023-04-05T01:57:01.409Z,76.52
2023-04-05T01:58:47.896Z,76.21
2023-04-05T02:00:40.110Z,75.85
2023-04-05T02:02:25.840Z,76.07
2023-04-05T02:04:07.196Z,76.22
2023-04-05T02:05:45.463Z,76.20
2023-04-05T02:07:40.907Z,76.18
2023-04-05T02:09:35.687Z,75.75
2023-04-05T02:11:09.106Z,75.73
2023-04-05T02:12:43.933Z,75.39
2023-04-05T02:14:18.825Z,75.77
2023-04-05T02:16:04.237Z,75.52
2023-04-05T02:17:57.679Z,76.09
2023-04-05T02:19:52.867Z,75.86
2023-04-05T02:21:29.975Z,76.11
2023-04-05T02:23:19.521Z,75.80
2023-04-05T02:24:55.987Z,75.52
2023-04-05T02:26:43.258Z,75.58
2023-04-05T02:28:28.874Z,75.99
2023-04-05T02:30:23.643Z,75.97
2023-04-05T02:31:59.869Z,75.92
2023-04-05T02:33:34.517Z,75.45
2023-04-05T02:35:20.276Z,75.34
2023-04-05T02:36:49.281Z,75.61
2023-04-05T02:38:42.949Z,75.56
2023-04-05T02:40:21.626Z,75.46
2023-04-05T02:42:16.452Z,75.63
2023-04-05T02:43:50.895Z,75.68
2023-04-05T02:45:36.560Z,75.89
2023-04-05T02:47:24.240Z,75.80
2023-04-05T02:49:22.702Z,75.86
2023-04-05T02:50:56.171Z,75.98
2023-04-05T02:52:50.374Z,75.85
2023-04-05T02:54:24.243Z,75.85
2023-04-05T02:56:09.842Z,75.45
2023-04-05T02:57:56.395Z,75.45
2023-04-05T02:59:48.851Z,75.27
2023-04-05T03:01:42.357Z,75.62
2023-04-05T03:03:22.895Z,75.37
2023-04-05T03:05:06.164Z,75.33
2023-04-05T03:06:57.084Z,75.43
2023-04-05T03:08:48.573Z,75.60
2023-04-05T03:10:43.701Z,75.89
2023-04-05T03:12:34.574Z,75.75
2023-04-05T03:14:29.792Z,75.64
2023-04-05T03:16:23.683Z,76.10
2023-04-05T03:17:59.293Z,75.75
2023-04-05T03:19:34.372Z,75.97
2023-04-05T03:21:36.817Z,75.98
2023-04-05T03:23:30.161Z,75.95
2023-04-05T03:25:11.328Z,76.21
2023-04-05T03:26:49.957Z,76.16
2023-04-05T03:28:45.629Z,76.07
2023-04-05T03:30:26.428Z,75.79
2023-04-05T03:32:19.037Z,75.83
2023-04-05T03:33:59.779Z,75.87
2023-04-05T03:35:35.950Z,75.61
2023-04-05T03:37:23.878Z,75.46
2023-04-05T03:39:07.475Z,75.64
2023-04-05T03:40:53.151Z,75.23
2023-04-05T03:42:25.348Z,75.50
2023-04-05T03:44:12.929Z,75.52
2023-04-05T03:45:59.548Z,75.53
2023-04-05T03:47:46.712Z,75.59
2023-04-05T03:49:31.745Z,76.04
2023-04-05T03:51:05.370Z,76.37
2023-04-05T03:52:52.294Z,75.94
2023-04-05T03:54:33.431Z,76.04
2023-04-05T03:56:27.844Z,76.50
2023-04-05T03:58:14.005Z,76.66
2023-04-05T03:59:58.942Z,76.90
2023-04-05T04:01:46.444Z,76.85
2023-04-05T04:03:26.407Z,76.96
2023-04-05T04:05:21.711Z,77.24
2023-04-05T04:07:16.194Z,77.44
2023-04-05T04:09:00.409Z,76.59
2023-04-05T04:10:47.374Z,76.45
2023-04-05T04:12:44.650Z,76.09
2023-04-05T04:14:32.303Z,76.06
2023-04-05T04:16:28.946Z,75.76
2023-04-05T04:18:53.627Z,75.15
2023-04-05T04:21:30.589Z,75.02
2023-04-05T04:23:28.200Z,74.81
2023-04-05T04:25:32.727Z,74.73
2023-04-05T04:27:30.475Z,74.75
2023-04-05T04:30:08.660Z,74.56
2023-04-05T04:31:50.963Z,74.44
2023-04-05T04:33:51.719Z,73.78
2023-04-05T04:35:51.714Z,73.36
2023-04-05T04:37:17.841Z,73.35
2023-04-05T04:39:43.704Z,73.51
2023-04-05T04:41:49.580Z,73.82
2023-04-05T04:43:52.675Z,73.50
2023-04-05T04:45:54.876Z,73.58
2023-04-05T04:47:34.050Z,72.89
2023-04-05T04:49:39.443Z,72.67
2023-04-05T04:51:33.359Z,72.50
2023-04-05T04:53:22.862Z,72.78
2023-04-05T04:54:57.431Z,72.64
2023-04-05T04:56:38.133Z,72.72
2023-04-05T04:58:11.836Z,72.56
2023-04-05T04:59:57.594Z,72.44
2023-04-05T05:01:43.619Z,72.52
2023-04-05T05:03:36.115Z,72.34
2023-04-05T05:05:31.666Z,72.25
2023-04-05T05:07:17.541Z,72.22
2023-04-05T05:08:51.111Z,71.57
2023-04-05T05:10:38.061Z,71.18
2023-04-05T05:12:28.714Z,71.01
2023-04-05T05:14:12.503Z,70.58
2023-04-05T05:15:34.420Z,70.05
2023-04-05T05:17:10.740Z,69.92
2023-04-05T05:18:55.665Z,69.88
2023-04-05T05:20:32.481Z,69.88
2023-04-05T05:22:26.323Z,69.66
2023-04-05T05:24:02.169Z,69.52
2023-04-05T05:25:42.765Z,69.33
2023-04-05T05:27:16.641Z,69.18
2023-04-05T05:28:50.289Z,68.82
2023-04-05T05:30:36.582Z,68.74
2023-04-05T05:32:30.401Z,68.59
2023-04-05T05:34:04.058Z,68.45
2023-04-05T05:35:54.635Z,68.69
2023-04-05T05:37:40.194Z,68.53
2023-04-05T05:39:14.414Z,68.23
2023-04-05T05:40:59.949Z,67.84
2023-04-05T05:42:35.090Z,67.71
2023-04-05T05:44:08.866Z,67.26
2023-04-05T05:45:42.532Z,66.84
2023-04-05T05:47:30.161Z,66.71
2023-04-05T05:49:25.663Z,66.48
2023-04-05T05:51:13.167Z,66.92
2023-04-05T05:52:47.581Z,66.71
2023-04-05T05:54:33.250Z,66.43
2023-04-05T05:56:16.664Z,66.25
2023-04-05T05:58:01.906Z,65.90
2023-04-05T05:59:47.321Z,65.92
2023-04-05T06:01:38.897Z,65.61
2023-04-05T06:03:20.448Z,65.54
2023-04-05T06:05:01.906Z,64.99
2023-04-05T06:06:47.818Z,65.29
2023-04-05T06:08:41.547Z,64.91
2023-04-05T06:10:35.434Z,64.50
2023-04-05T06:12:20.624Z,63.82
2023-04-05T06:14:08.984Z,63.25
2023-04-05T06:15:50.511Z,62.99
2023-04-05T06:17:36.443Z,62.66
2023-04-05T06:19:22.299Z,63.15
2023-04-05T06:20:57.468Z,62.97
2023-04-05T06:22:45.662Z,63.85
2023-04-05T06:24:19.547Z,62.99
2023-04-05T06:26:05.704Z,62.64
2023-04-05T06:27:47.777Z,62.57
2023-04-05T06:29:35.784Z,62.28
2023-04-05T06:31:11.492Z,62.55
2023-04-05T06:32:56.639Z,63.31
2023-04-05T06:34:37.618Z,62.47
2023-04-05T06:36:33.592Z,62.37
2023-04-05T06:38:29.576Z,62.89
2023-04-05T06:40:06.475Z,63.64
2023-04-05T06:41:54.789Z,63.12
2023-04-05T06:43:37.637Z,62.67
2023-04-05T06:45:24.211Z,62.66
2023-04-05T06:47:05.103Z,62.35
2023-04-05T06:48:50.472Z,62.16
2023-04-05T06:50:45.557Z,62.22
2023-04-05T06:52:28.548Z,62.18
2023-04-05T06:54:18.575Z,62.41
2023-04-05T06:56:04.604Z,62.31
2023-04-05T06:57:47.590Z,60.92
2023-04-05T06:59:24.072Z,60.71
2023-04-05T07:00:57.283Z,61.06
2023-04-05T07:02:42.741Z,61.95
2023-04-05T07:04:29.941Z,62.44
2023-04-05T07:06:18.149Z,62.02
2023-04-05T07:07:54.119Z,61.45
2023-04-05T07:09:47.477Z,60.78
2023-04-05T07:11:33.418Z,60.16
2023-04-05T07:13:14.573Z,60.45
2023-04-05T07:14:36.463Z,61.16
2023-04-05T07:16:30.200Z,60.66
2023-04-05T07:18:16.357Z,60.32
2023-04-05T07:19:46.296Z,59.69
2023-04-05T07:21:32.571Z,60.57
2023-04-05T07:23:18.310Z,60.50
2023-04-05T07:24:53.849Z,60.35
2023-04-05T07:26:35.043Z,59.50
2023-04-05T07:27:58.742Z,59.72
2023-04-05T07:29:47.156Z,58.77
2023-04-05T07:31:37.890Z,58.55
2023-04-05T07:33:23.164Z,59.08
2023-04-05T07:34:58.886Z,58.97
2023-04-05T07:36:46.637Z,58.90
2023-04-05T07:38:20.748Z,58.50
2023-04-05T07:39:54.031Z,57.14
2023-04-05T07:41:41.205Z,56.77
2023-04-05T07:43:16.929Z,56.20
2023-04-05T07:45:02.221Z,56.12
2023-04-05T07:46:45.541Z,56.27
2023-04-05T07:48:24.324Z,57.48
2023-04-05T07:49:58.230Z,57.78
2023-04-05T07:51:44.675Z,56.56
2023-04-05T07:53:09.104Z,55.29
2023-04-05T07:54:54.975Z,54.85
2023-04-05T07:56:40.421Z,54.26
2023-04-05T07:58:18.590Z,53.83
2023-04-05T07:59:40.344Z,54.20
2023-04-05T08:01:28.914Z,53.61
2023-04-05T08:03:02.859Z,53.57
2023-04-05T08:04:43.281Z,53.27
2023-04-05T08:06:28.553Z,53.33
2023-04-05T08:08:17.641Z,53.52
2023-04-05T08:10:03.070Z,52.81
2023-04-05T08:11:48.338Z,52.18
2023-04-05T08:13:38.739Z,52.68
2023-04-05T08:15:24.123Z,51.93
2023-04-05T08:16:57.212Z,51.00
2023-04-05T08:18:37.909Z,51.54
2023-04-05T08:20:11.421Z,51.75
2023-04-05T08:21:55.917Z,51.51
2023-04-05T08:23:36.758Z,52.65
2023-04-05T08:25:12.721Z,52.15
2023-04-05T08:26:46.809Z,51.66
2023-04-05T08:28:22.263Z,51.63
2023-04-05T08:30:07.316Z,51.98
2023-04-05T08:31:31.358Z,51.79
2023-04-05T08:33:07.430Z,50.66
2023-04-05T08:34:42.667Z,51.74
2023-04-05T08:36:16.623Z,51.00
2023-04-05T08:37:49.741Z,50.47
2023-04-05T08:39:35.325Z,50.88
2023-04-05T08:41:12.038Z,48.97
2023-04-05T08:42:56.999Z,49.18
2023-04-05T08:44:47.038Z,48.77
2023-04-05T08:46:21.013Z,48.67
2023-04-05T08:47:54.232Z,49.85
2023-04-05T08:49:39.172Z,51.00
2023-04-05T08:51:12.773Z,49.64
2023-04-05T08:52:57.626Z,49.24
2023-04-05T08:54:51.104Z,48.22
2023-04-05T08:56:31.618Z,48.63
2023-04-05T08:58:05.082Z,48.93
2023-04-05T08:59:38.342Z,49.14
2023-04-05T09:01:20.606Z,50.61
2023-04-05T09:03:05.525Z,49.55
2023-04-05T09:04:46.593Z,47.86
2023-04-05T09:06:22.533Z,47.43
2023-04-05T09:07:55.413Z,48.48
2023-04-05T09:09:36.328Z,49.51
2023-04-05T09:11:25.033Z,48.39
2023-04-05T09:13:18.344Z,48.58
2023-04-05T09:14:53.573Z,47.83
2023-04-05T09:16:47.074Z,47.27
2023-04-05T09:18:32.465Z,47.61
2023-04-05T09:20:26.041Z,46.41
2023-04-05T09:22:11.756Z,47.34
2023-04-05T09:23:34.908Z,47.00
2023-04-05T09:25:08.561Z,47.06
2023-04-05T09:26:49.759Z,46.99
2023-04-05T09:28:35.067Z,46.23
2023-04-05T09:30:08.704Z,45.77
2023-04-05T09:31:34.947Z,45.40
2023-04-05T09:33:16.131Z,45.67
2023-04-05T09:35:01.171Z,45.21
2023-04-05T09:36:35.791Z,46.12
2023-04-05T09:38:05.522Z,45.02
2023-04-05T09:39:40.615Z,44.51
2023-04-05T09:41:06.915Z,45.25
2023-04-05T09:42:41.762Z,45.75
2023-04-05T09:44:04.054Z,47.11
2023-04-05T09:45:37.110Z,45.39
2023-04-05T09:47:11.110Z,45.91
2023-04-05T09:48:34.988Z,45.95
2023-04-05T09:50:10.465Z,46.12
2023-04-05T09:51:46.207Z,46.03
2023-04-05T09:53:30.547Z,45.52
2023-04-05T09:55:15.770Z,45.11
2023-04-05T09:56:39.851Z,45.36
2023-04-05T09:58:01.499Z,46.05
2023-04-05T09:59:28.129Z,45.06
2023-04-05T10:01:15.710Z,46.31
2023-04-05T10:02:52.896Z,47.21
2023-04-05T10:04:38.575Z,46.48
2023-04-05T10:06:14.822Z,45.21
2023-04-05T10:07:47.897Z,44.56
2023-04-05T10:09:19.444Z,44.18
2023-04-05T10:11:04.252Z,44.58
2023-04-05T10:12:48.913Z,44.74
2023-04-05T10:14:34.356Z,44.72
2023-04-05T10:16:08.356Z,44.41
2023-04-05T10:17:53.091Z,44.27
2023-04-05T10:19:38.534Z,44.68
2023-04-05T10:21:23.934Z,43.93
2023-04-05T10:22:57.315Z,43.31
2023-04-05T10:24:38.303Z,44.46
2023-04-05T10:26:12.433Z,45.22
2023-04-05T10:27:34.159Z,44.04
2023-04-05T10:29:05.619Z,43.35
2023-04-05T10:30:31.897Z,43.50
2023-04-05T10:32:06.396Z,43.05
2023-04-05T10:33:47.352Z,43.16
2023-04-05T10:35:33.096Z,43.24
2023-04-05T10:37:18.673Z,44.04
2023-04-05T10:38:52.181Z,45.26
2023-04-05T10:42:43.820Z,44.29
2023-04-05T10:44:26.370Z,43.28
2023-04-05T10:45:48.328Z,41.47
2023-04-05T10:47:33.738Z,41.27
2023-04-05T10:49:22.749Z,41.02
2023-04-05T10:50:56.035Z,40.27
2023-04-05T10:52:44.145Z,40.15
2023-04-05T10:54:17.769Z,39.86
2023-04-05T10:55:41.615Z,41.26
2023-04-05T10:57:17.397Z,41.07
2023-04-05T10:58:52.500Z,42.21
2023-04-05T11:00:21.849Z,42.19
2023-04-05T11:01:52.961Z,41.08
2023-04-05T11:03:15.026Z,41.82
2023-04-05T11:04:55.208Z,41.26
2023-04-05T11:06:37.332Z,40.92
2023-04-05T11:08:23.379Z,41.71
2023-04-05T11:10:16.552Z,41.77
2023-04-05T11:11:38.058Z,41.72
2023-04-05T11:13:11.106Z,42.11
2023-04-05T11:14:46.364Z,41.99
2023-04-05T11:16:22.395Z,42.03
2023-04-05T11:18:08.921Z,42.83
2023-04-05T11:19:38.556Z,40.82
2023-04-05T11:21:33.554Z,39.99
2023-04-05T11:23:18.575Z,39.55
2023-04-05T11:25:04.327Z,41.76
2023-04-05T11:26:33.670Z,41.79
2023-04-05T11:28:27.555Z,39.39
2023-04-05T11:30:01.921Z,40.29
2023-04-05T11:31:42.718Z,39.70
2023-04-05T11:33:20.716Z,39.87
2023-04-05T11:35:05.677Z,38.53
2023-04-05T11:36:48.132Z,36.98
2023-04-05T11:38:21.910Z,36.49
2023-04-05T11:39:55.155Z,37.32
2023-04-05T11:41:36.043Z,38.78
2023-04-05T11:43:09.419Z,39.05
2023-04-05T11:44:34.665Z,39.82
2023-04-05T11:46:28.216Z,39.97
2023-04-05T11:48:01.786Z,39.44
2023-04-05T11:49:47.108Z,40.12
2023-04-05T11:51:32.149Z,39.64
2023-04-05T11:53:09.358Z,39.67
2023-04-05T11:54:46.402Z,38.09
2023-04-05T11:56:16.376Z,38.26
2023-04-05T11:57:57.024Z,37.15
2023-04-05T11:59:42.250Z,37.84
2023-04-05T12:01:16.501Z,36.30
2023-04-05T12:02:49.526Z,36.47
2023-04-05T12:04:26.664Z,36.33
2023-04-05T12:05:53.546Z,36.82
2023-04-05T12:07:41.206Z,37.79
2023-04-05T12:09:07.795Z,37.75
2023-04-05T12:10:31.837Z,37.30
2023-04-05T12:12:04.956Z,37.77
2023-04-05T12:13:38.335Z,38.77
2023-04-05T12:15:23.452Z,39.30
2023-04-05T12:16:56.888Z,39.27
2023-04-05T12:18:19.037Z,39.56
2023-04-05T12:20:09.163Z,39.57
2023-04-05T12:21:54.109Z,39.62
2023-04-05T12:23:28.552Z,39.06
2023-04-05T12:25:01.689Z,38.37
2023-04-05T12:26:25.730Z,37.75
2023-04-05T12:27:59.246Z,37.20
2023-04-05T12:29:51.891Z,36.14
2023-04-05T12:31:27.745Z,35.65
2023-04-05T12:33:03.238Z,35.07
2023-04-05T12:34:27.314Z,35.68
2023-04-05T12:36:02.896Z,36.86
2023-04-05T12:37:47.025Z,38.14
2023-04-05T12:39:23.072Z,39.12
2023-04-05T12:40:56.406Z,38.28
2023-04-05T12:42:29.505Z,38.28
2023-04-05T12:43:58.265Z,37.01
2023-04-05T12:45:27.657Z,37.25
2023-04-05T12:47:02.652Z,36.89
2023-04-05T12:48:47.259Z,36.85
2023-04-05T12:50:13.428Z,37.28
2023-04-05T12:51:46.506Z,38.18
2023-04-05T12:53:21.103Z,37.81
2023-04-05T12:54:56.573Z,37.70
2023-04-05T12:56:32.454Z,38.99
2023-04-05T12:58:25.965Z,40.68
2023-04-05T12:59:58.921Z,40.87
2023-04-05T13:01:44.660Z,37.34
2023-04-05T13:03:21.031Z,37.35
2023-04-05T13:04:54.423Z,37.12
2023-04-05T13:06:27.862Z,37.48
2023-04-05T13:07:49.269Z,38.05
2023-04-05T13:09:22.808Z,39.03
2023-04-05T13:10:58.092Z,39.25
2023-04-05T13:12:52.553Z,39.10
2023-04-05T13:14:26.401Z,39.20
2023-04-05T13:16:10.815Z,38.08
2023-04-05T13:17:55.360Z,38.61
2023-04-05T13:19:24.925Z,36.91
2023-04-05T13:21:11.275Z,35.57
2023-04-05T13:22:44.534Z,34.92
2023-04-05T13:24:18.292Z,34.35
2023-04-05T13:25:51.581Z,34.71
2023-04-05T13:27:25.403Z,35.29
2023-04-05T13:28:58.653Z,34.46
2023-04-05T13:30:32.733Z,34.32
2023-04-05T13:32:06.261Z,33.19
2023-04-05T13:33:39.332Z,33.65
2023-04-05T13:35:05.664Z,33.70
2023-04-05T13:36:39.351Z,33.76
2023-04-05T13:38:05.805Z,33.70
2023-04-05T13:39:39.321Z,32.48
2023-04-05T13:41:19.951Z,31.98
2023-04-05T13:42:45.703Z,32.89
2023-04-05T13:44:26.581Z,32.70
2023-04-05T13:46:02.551Z,34.33
2023-04-05T13:47:42.960Z,33.74
2023-04-05T13:49:16.983Z,33.12
2023-04-05T13:50:52.510Z,32.86
2023-04-05T13:52:26.499Z,31.14
2023-04-05T13:54:01.756Z,30.90
2023-04-05T13:55:35.157Z,30.24
2023-04-05T13:57:16.612Z,30.03
2023-04-05T13:58:57.408Z,31.73
2023-04-05T14:00:35.119Z,32.72
2023-04-05T14:02:29.613Z,33.48
2023-04-05T14:04:14.947Z,32.47
2023-04-05T14:05:38.316Z,32.56
2023-04-05T14:07:11.820Z,32.63
2023-04-05T14:08:56.319Z,34.14
2023-04-05T14:10:21.402Z,34.66
2023-04-05T14:12:10.709Z,35.19
2023-04-05T14:13:55.433Z,35.54
2023-04-05T14:15:30.531Z,34.31
2023-04-05T14:17:04.154Z,33.85
2023-04-05T14:18:30.440Z,33.75
2023-04-05T14:20:06.041Z,33.52
2023-04-05T14:21:46.945Z,34.23
2023-04-05T14:23:28.327Z,34.40
2023-04-05T14:25:08.793Z,32.97
2023-04-05T14:26:53.703Z,33.99
2023-04-05T14:28:38.980Z,34.71
2023-04-05T14:30:20.518Z,35.10
2023-04-05T14:31:53.435Z,35.46
2023-04-05T14:33:33.337Z,36.01
2023-04-05T14:35:23.401Z,36.99
2023-04-05T14:36:56.694Z,37.27
2023-04-05T14:38:26.498Z,38.59
2023-04-05T14:40:07.175Z,38.66
2023-04-05T14:41:40.730Z,38.91
2023-04-05T14:43:28.819Z,39.74
2023-04-05T14:45:22.571Z,40.24
2023-04-05T14:46:58.304Z,40.41
2023-04-05T14:48:53.544Z,39.76
2023-04-05T14:50:34.586Z,39.17
2023-04-05T14:52:07.778Z,38.87
2023-04-05T14:53:43.384Z,38.77
2023-04-05T14:55:23.969Z,38.74
2023-04-05T14:56:59.065Z,38.84
2023-04-05T14:58:32.931Z,38.82
2023-04-05T14:59:56.567Z,38.61
2023-04-05T15:01:45.785Z,38.95
2023-04-05T15:03:21.706Z,39.51
2023-04-05T15:05:07.489Z,39.68
2023-04-05T15:06:29.559Z,39.14
2023-04-05T15:08:11.971Z,38.35
2023-04-05T15:09:48.765Z,37.60
2023-04-05T15:11:34.115Z,36.98
2023-04-05T15:13:19.476Z,36.47
2023-04-05T15:14:48.546Z,36.07
2023-04-05T15:16:29.335Z,36.15
2023-04-05T15:18:14.294Z,35.49
2023-04-05T15:19:59.160Z,36.10
2023-04-05T15:21:43.843Z,36.67
2023-04-05T15:23:20.073Z,37.15
2023-04-05T15:24:56.020Z,37.59
2023-04-05T15:26:36.885Z,37.90
2023-04-05T15:28:19.555Z,37.84
2023-04-05T15:30:00.227Z,38.10
2023-04-05T15:31:53.669Z,38.44
2023-04-05T15:33:20.226Z,37.72
2023-04-05T15:35:01.035Z,37.69
2023-04-05T15:36:46.168Z,37.95
2023-04-05T15:38:27.304Z,37.64
2023-04-05T15:39:53.288Z,39.19
2023-04-05T15:41:43.591Z,39.26
2023-04-05T15:43:25.123Z,39.74
2023-04-05T15:44:55.984Z,39.92
2023-04-05T15:46:29.665Z,40.83
2023-04-05T15:48:11.403Z,40.29
2023-04-05T15:49:56.164Z,39.34
2023-04-05T15:51:29.556Z,39.21
2023-04-05T15:53:02.685Z,38.12
2023-04-05T15:54:47.651Z,37.41
2023-04-05T15:56:23.590Z,37.10
2023-04-05T15:58:17.563Z,36.24
2023-04-05T15:59:50.427Z,35.29
2023-04-05T16:01:14.850Z,34.40
2023-04-05T16:03:00.695Z,34.19
2023-04-05T16:04:46.074Z,34.04
2023-04-05T16:08:29.968Z,33.26
2023-04-05T16:10:15.163Z,34.15
2023-04-05T16:12:00.088Z,34.80
2023-04-05T16:13:50.279Z,35.47
2023-04-05T16:15:24.545Z,36.90
2023-04-05T16:17:09.707Z,37.45
2023-04-05T16:18:45.658Z,37.87
2023-04-05T16:20:26.661Z,38.29
2023-04-05T16:22:19.970Z,38.68
2023-04-05T16:23:56.828Z,38.96
2023-04-05T16:25:32.624Z,39.12
2023-04-05T16:27:18.041Z,38.90
2023-04-05T16:28:58.702Z,38.71
2023-04-05T16:30:32.125Z,39.40
2023-04-05T16:32:17.529Z,40.42
2023-04-05T16:33:41.768Z,40.56
2023-04-05T16:35:15.065Z,40.10
2023-04-05T16:36:44.035Z,40.29
2023-04-05T16:38:22.046Z,40.69
2023-04-05T16:40:02.786Z,41.28
2023-04-05T16:41:36.394Z,41.67
2023-04-05T16:43:26.764Z,41.79
2023-04-05T16:45:11.268Z,42.39
2023-04-05T16:46:52.312Z,42.78
2023-04-05T16:48:34.053Z,43.10
2023-04-05T16:50:19.420Z,43.60
2023-04-05T16:52:04.863Z,43.88
2023-04-05T16:53:38.153Z,44.69
2023-04-05T16:55:24.040Z,44.94
2023-04-05T16:56:57.599Z,45.11
2023-04-05T16:58:31.673Z,45.37
2023-04-05T16:59:58.062Z,45.30
2023-04-05T17:01:31.912Z,45.45
2023-04-05T17:03:25.660Z,45.43
2023-04-05T17:05:10.639Z,45.81
2023-04-05T17:06:46.145Z,46.28
2023-04-05T17:08:31.896Z,46.59
2023-04-05T17:10:05.316Z,46.73
2023-04-05T17:11:50.454Z,46.96
2023-04-05T17:13:24.355Z,47.16
2023-04-05T17:14:48.672Z,47.37
2023-04-05T17:16:13.385Z,47.62
2023-04-05T17:17:58.405Z,48.17
2023-04-05T17:19:33.773Z,48.48
2023-04-05T17:21:19.002Z,48.68
2023-04-05T17:22:59.564Z,49.11
2023-04-05T17:24:48.034Z,48.98
2023-04-05T17:26:29.148Z,49.17
2023-04-05T17:28:22.265Z,49.71
2023-04-05T17:30:02.682Z,49.70
2023-04-05T17:31:39.024Z,50.10
2023-04-05T17:33:33.616Z,50.43
2023-04-05T17:35:07.539Z,50.51
2023-04-05T17:36:52.613Z,50.49
2023-04-05T17:38:38.579Z,50.77
2023-04-05T17:40:24.435Z,51.15
2023-04-05T17:41:59.788Z,51.70
2023-04-05T17:43:36.585Z,51.72
2023-04-05T17:45:17.454Z,51.83
2023-04-05T17:46:54.341Z,52.14
2023-04-05T17:48:51.571Z,52.41
2023-04-05T17:52:34.126Z,52.56
2023-04-05T17:54:19.969Z,52.72
2023-04-05T17:56:05.268Z,52.84
2023-04-05T17:57:50.322Z,52.69
2023-04-05T17:59:23.938Z,53.19
2023-04-05T18:00:57.922Z,53.33
2023-04-05T18:02:43.212Z,53.33
2023-04-05T18:04:10.186Z,53.37
2023-04-05T18:05:45.949Z,53.25
2023-04-05T18:07:08.436Z,53.64
2023-04-05T18:08:32.641Z,53.96
2023-04-05T18:09:54.824Z,54.03
2023-04-05T18:11:31.746Z,54.00
2023-04-05T18:13:05.454Z,54.05
2023-04-05T18:14:49.139Z,54.11
2023-04-05T18:16:11.943Z,54.23
2023-04-05T18:19:57.294Z,54.24
2023-04-05T18:21:31.020Z,54.39
2023-04-05T18:23:13.580Z,54.49
2023-04-05T18:24:48.844Z,54.73
2023-04-05T18:26:25.249Z,54.60
2023-04-05T18:27:47.019Z,54.74
2023-04-05T18:29:40.916Z,54.59
2023-04-05T18:31:15.791Z,54.67
2023-04-05T18:32:54.549Z,54.83
2023-04-05T18:34:39.906Z,55.01
2023-04-05T18:36:26.592Z,55.07
2023-04-05T18:38:02.444Z,55.39
2023-04-05T18:39:35.927Z,55.33
2023-04-05T18:41:12.308Z,55.43
2023-04-05T18:42:58.040Z,55.63
2023-04-05T18:44:33.821Z,55.74
2023-04-05T18:48:31.435Z,56.03
2023-04-05T18:50:16.785Z,56.08
2023-04-05T18:51:48.687Z,55.95
2023-04-05T18:53:22.313Z,55.98
2023-04-05T18:54:58.573Z,55.75
2023-04-05T18:58:55.558Z,56.09
2023-04-05T19:00:41.081Z,56.49
2023-04-05T19:02:22.199Z,56.27
2023-04-05T19:03:55.938Z,56.39
2023-04-05T19:05:42.263Z,56.40
2023-04-05T19:07:36.585Z,56.47
2023-04-05T19:09:21.965Z,56.75
2023-04-05T19:10:53.202Z,56.74
2023-04-05T19:12:35.791Z,56.47
2023-04-05T19:14:08.916Z,56.34
2023-04-05T19:15:33.110Z,56.62
2023-04-05T19:17:17.586Z,56.71
2023-04-05T19:18:53.470Z,56.76
2023-04-05T19:20:25.322Z,57.08
2023-04-05T19:21:58.997Z,57.26
2023-04-05T19:23:32.910Z,57.47
2023-04-05T19:25:02.178Z,57.60
2023-04-05T19:26:38.281Z,57.55
2023-04-05T19:28:19.585Z,57.70
2023-04-05T19:29:55.006Z,57.77
2023-04-05T19:31:27.320Z,57.66
2023-04-05T19:33:00.702Z,57.61
2023-04-05T19:34:34.671Z,57.94
2023-04-05T19:37:56.505Z,58.39
2023-04-05T19:39:29.525Z,58.18
2023-04-05T19:41:14.527Z,58.02
2023-04-05T19:42:59.570Z,58.35
2023-04-05T19:44:44.770Z,58.59
2023-04-05T19:46:06.859Z,58.31
2023-04-05T19:47:29.142Z,58.44
2023-04-05T19:49:02.607Z,58.32
2023-04-05T19:50:29.765Z,58.35
2023-04-05T19:52:01.333Z,58.25
2023-04-05T19:53:34.949Z,58.31
2023-04-05T19:54:56.576Z,58.18
2023-04-05T19:56:50.200Z,58.53
2023-04-05T19:58:31.399Z,58.17
2023-04-05T20:00:17.000Z,58.46
2023-04-05T20:01:51.618Z,58.27
2023-04-05T20:03:25.638Z,58.12
2023-04-05T20:04:59.048Z,58.21
2023-04-05T20:06:44.356Z,58.49
2023-04-05T20:08:19.357Z,58.58
2023-04-05T20:09:43.458Z,58.50
2023-04-05T20:11:24.332Z,58.41
2023-04-05T20:12:55.249Z,58.47
2023-04-05T20:14:36.149Z,58.39
2023-04-05T20:15:57.814Z,58.31
2023-04-05T20:17:22.872Z,58.42
2023-04-05T20:18:51.579Z,58.77
2023-04-05T20:20:25.911Z,58.64
2023-04-05T20:21:55.450Z,58.74
2023-04-05T20:23:34.605Z,58.55
2023-04-05T20:25:21.917Z,58.73
2023-04-05T20:26:56.734Z,58.66
2023-04-05T20:28:30.448Z,58.47
2023-04-05T20:29:59.319Z,58.53
2023-04-05T20:31:52.700Z,58.33
2023-04-05T20:33:14.939Z,58.38
2023-04-05T20:34:46.661Z,58.39
2023-04-05T20:36:11.820Z,58.45
2023-04-05T20:38:02.927Z,58.53
2023-04-05T20:39:44.012Z,58.22
2023-04-05T20:41:19.877Z,58.26
2023-04-05T20:42:44.370Z,58.23
2023-04-05T20:44:20.387Z,58.26
2023-04-05T20:45:54.832Z,58.27
2023-04-05T20:47:40.414Z,58.48
2023-04-05T20:51:07.930Z,58.78
2023-04-05T20:52:41.575Z,58.79
2023-04-05T20:54:24.477Z,58.96
2023-04-05T20:56:00.105Z,59.16
2023-04-05T20:57:36.108Z,59.21
2023-04-05T20:59:09.961Z,59.06
2023-04-05T21:00:32.131Z,59.24
2023-04-05T21:02:07.577Z,59.29
2023-04-05T21:03:43.656Z,59.44
2023-04-05T21:05:15.819Z,59.71
2023-04-05T21:06:47.305Z,59.95
2023-04-05T21:08:33.026Z,59.93
2023-04-05T21:10:06.965Z,60.21
2023-04-05T21:11:40.496Z,60.46
2023-04-05T21:13:34.134Z,60.24
2023-04-05T21:15:00.281Z,60.36
2023-04-05T21:16:40.714Z,60.40
2023-04-05T21:18:07.739Z,60.34
2023-04-05T21:19:41.229Z,60.45
2023-04-05T21:21:06.044Z,60.51
2023-04-05T21:22:47.444Z,60.40
2023-04-05T21:24:32.121Z,60.53
2023-04-05T21:26:01.552Z,60.56
2023-04-05T21:27:31.319Z,60.47
2023-04-05T21:28:53.563Z,60.83
2023-04-05T21:30:29.871Z,60.58
2023-04-05T21:32:01.221Z,60.88
2023-04-05T21:33:54.457Z,60.78
2023-04-05T21:35:19.060Z,60.88
2023-04-05T21:36:51.994Z,60.96
2023-04-05T21:38:26.077Z,60.98
2023-04-05T21:40:11.419Z,60.99
2023-04-05T21:41:35.513Z,60.76
2023-04-05T21:43:08.835Z,61.11
2023-04-05T21:44:42.465Z,60.80
2023-04-05T21:46:04.113Z,60.86
2023-04-05T21:47:37.816Z,60.93
2023-04-05T21:49:11.146Z,61.14
2023-04-05T21:50:42.803Z,60.90
2023-04-05T21:52:04.884Z,60.66
2023-04-05T21:53:26.672Z,61.00
2023-04-05T21:54:50.796Z,61.09
2023-04-05T21:56:20.235Z,60.96
2023-04-05T21:57:48.889Z,60.96
2023-04-05T21:59:18.749Z,61.16
2023-04-05T22:00:42.981Z,61.08
2023-04-05T22:02:11.942Z,61.16
2023-04-05T22:03:56.391Z,61.20
2023-04-05T22:05:33.911Z,61.68
2023-04-05T22:07:01.308Z,61.29
2023-04-05T22:08:34.688Z,61.58
2023-04-05T22:09:58.682Z,61.38
2023-04-05T22:11:21.047Z,61.40
2023-04-05T22:12:52.336Z,61.41
2023-04-05T22:14:19.952Z,61.24
2023-04-05T22:15:51.352Z,61.39
2023-04-05T22:17:13.561Z,61.29
2023-04-05T22:18:37.416Z,61.50
2023-04-05T22:19:58.730Z,61.45
2023-04-05T22:21:23.579Z,61.49
2023-04-05T22:22:52.858Z,61.68
2023-04-05T22:24:17.067Z,61.77
2023-04-05T22:25:46.982Z,61.97
2023-04-05T22:27:19.013Z,61.92
2023-04-05T22:28:41.484Z,61.91
2023-04-05T22:30:16.143Z,62.13
2023-04-05T22:31:38.084Z,62.23
2023-04-05T22:33:19.402Z,62.15
2023-04-05T22:34:48.682Z,62.43
2023-04-05T22:36:11.040Z,62.64
2023-04-05T22:37:40.780Z,62.63
2023-04-05T22:39:04.976Z,62.74